Latest Weather Observations for Townsville Air Weapons Range (Defence)

IDQ60801

Issued at 7:42 pm EST Thursday 16 August 2018 (issued every 10 minutes, with the page automatically refreshed every 10 minutes)

About weather observations | Map of weather stations | Latest weather observations for QLD | Other Formats
Station Details ID: 032196 Name: TOWNSVILLE- AIR WEAPONS RANGE (DEFENCE) Lat: -19.30 Lon: 146.24 Height: 385.45 m
Data from the previous 72 hours. | See also: Recent months at Townsville Air Weapons Range (Defence)
Date/Time
EST
Temp
°C
App
Temp
°C
Dew
Point
°C
Rel
Hum
%
Delta-T
°C
Wind Press
QNH
hPa
Press
MSL
hPa
Rain since
9am
mm
Dir  Spd
km/h
Gust
km/h
Spd
kts
Gust
kts
16/07:30pm 17.8 17.0 13.9 78 2.3 ENE 11 15 6 8 - - 0.0
16/07:00pm 18.4 17.2 13.9 75 2.6 ENE 13 19 7 10 - - 0.0
16/06:30pm 19.5 17.9 13.9 70 3.3 ENE 15 24 8 13 - - 0.0
16/06:00pm 20.8 19.4 13.5 63 4.3 ENE 13 20 7 11 - - 0.0
16/05:30pm 22.4 20.2 13.2 56 5.4 ENE 17 24 9 13 - - 0.0
16/05:00pm 23.9 21.7 13.2 51 6.3 ENE 17 26 9 14 - - 0.0
16/04:30pm 25.3 23.4 12.9 46 7.3 ENE 15 20 8 11 - - 0.0
16/04:00pm 25.4 24.0 12.3 44 7.7 ENE 11 15 6 8 - - 0.0
16/03:30pm 26.9 25.9 8.8 32 10.0 SW 4 7 2 4 - - 0.0
16/03:00pm 27.8 26.2 8.6 30 10.7 W 7 19 4 10 - - 0.0
16/02:30pm 27.3 25.3 8.7 31 10.3 NW 9 22 5 12 - - 0.0
16/02:00pm 27.9 26.5 8.7 30 10.7 WNW 6 15 3 8 - - 0.0
16/01:30pm 26.2 25.5 10.0 36 9.1 SE 4 9 2 5 - - 0.0
16/01:00pm 26.5 24.8 9.8 35 9.4 SW 9 17 5 9 - - 0.0
16/12:30pm 25.9 24.8 10.1 37 8.9 NNE 6 13 3 7 - - 0.0
16/12:00pm 25.1 24.1 10.2 39 8.4 NW 6 11 3 6 - - 0.0
16/11:30am 24.8 24.5 13.4 49 6.8 E 7 13 4 7 - - 0.0
16/11:00am 23.4 23.1 12.7 51 6.2 NNE 6 7 3 4 - - 0.0
16/10:30am 23.1 23.0 13.3 54 5.8 NE 6 11 3 6 - - 0.0
16/10:00am 21.6 21.1 12.5 56 5.2 NNE 7 15 4 8 - - 0.0
16/09:30am 21.5 21.8 14.4 64 4.2 E 6 13 3 7 - - 0.0
16/09:00am 17.9 18.9 14.4 80 2.1 WSW 2 4 1 2 - - 0.0
16/08:30am 15.1 16.0 14.0 93 0.6 WSW 2 4 1 2 - - 0.0
16/08:00am 12.9 13.4 12.7 99 0.1 WSW 2 4 1 2 - - 0.0
16/07:30am 11.0 10.5 10.7 98 0.2 W 4 6 2 3 - - 0.0
16/07:00am 10.5 10.6 10.2 98 0.2 CALM 0 2 0 1 - - 0.0
16/06:30am 11.0 10.1 10.7 98 0.2 E 6 6 3 3 - - 0.0
16/06:00am 10.8 9.7 10.5 98 0.2 NE 7 9 4 5 - - 0.0
16/05:30am 11.3 10.5 11.0 98 0.2 E 6 6 3 3 - - 0.0
16/05:00am 11.5 10.7 11.0 97 0.3 NE 6 7 3 4 - - 0.0
16/04:30am 12.4 11.9 11.9 97 0.3 NE 6 7 3 4 - - 0.0
16/04:00am 12.7 12.2 12.2 97 0.3 NE 6 6 3 3 - - 0.0
16/03:30am 13.0 12.7 12.7 98 0.2 NE 6 7 3 4 - - 0.0
16/03:00am 12.8 12.8 12.3 97 0.3 ENE 4 6 2 3 - - 0.0
16/02:30am 12.9 12.2 12.0 94 0.5 ENE 7 9 4 5 - - 0.0
16/02:00am 14.2 15.2 13.1 93 0.6 CALM 0 0 0 0 - - 0.0
16/01:30am 14.8 15.4 13.2 90 0.9 NNE 2 4 1 2 - - 0.0
16/01:00am 14.6 14.8 13.1 91 0.8 NE 4 6 2 3 - - 0.0
16/12:30am 13.9 14.0 12.8 93 0.6 ENE 4 6 2 3 - - 0.0
16/12:00am 13.9 13.6 12.8 93 0.6 ENE 6 7 3 4 - - 0.0
 
Date/Time
EST
Temp
°C
App
Temp
°C
Dew
Point
°C
Rel
Hum
%
Delta-T
°C
Wind Press
QNH
hPa
Press
MSL
hPa
Rain since
9am
mm
Dir  Spd
km/h
Gust
km/h
Spd
kts
Gust
kts
15/11:30pm 15.1 14.7 13.1 88 1.1 ENE 7 9 4 5 - - 0.0
15/11:00pm 15.4 14.8 13.4 88 1.1 ENE 9 11 5 6 - - 0.0
15/10:30pm 15.4 15.2 13.1 86 1.3 ENE 6 7 3 4 - - 0.0
15/10:00pm 15.9 15.5 13.0 83 1.6 ENE 7 9 4 5 - - 0.0
15/09:30pm 16.1 15.4 13.2 83 1.6 ENE 9 13 5 7 - - 0.0
15/09:00pm 15.8 15.0 12.9 83 1.6 NE 9 11 5 6 - - 0.0
15/08:30pm 16.3 15.6 13.2 82 1.8 ENE 9 11 5 6 - - 0.0
15/08:00pm 16.8 15.8 13.3 80 2.0 ENE 11 13 6 7 - - 0.0
15/07:30pm 17.3 16.1 12.8 75 2.6 E 11 15 6 8 - - 0.0
15/07:00pm 18.5 17.6 12.5 68 3.4 ENE 9 15 5 8 - - 0.0
15/06:30pm 19.1 17.8 12.6 66 3.7 ENE 11 17 6 9 - - 0.0
15/06:00pm 20.3 18.2 12.5 61 4.5 ENE 15 22 8 12 - - 0.0
15/05:30pm 21.9 19.6 11.9 53 5.7 ENE 15 22 8 12 - - 0.0
15/05:00pm 23.4 21.6 10.8 45 7.1 ENE 11 20 6 11 - - 0.0
15/04:30pm 24.5 22.6 8.9 37 8.6 E 9 17 5 9 - - 0.0
15/04:00pm 24.1 21.4 8.9 38 8.3 E 13 19 7 10 - - 0.0
15/03:30pm 25.0 22.3 8.9 36 8.9 NE 13 24 7 13 - - 0.0
15/03:00pm 25.2 22.4 8.7 35 9.1 ENE 13 24 7 13 - - 0.0
15/02:30pm 23.2 20.8 8.5 39 8.0 E 11 17 6 9 - - 0.0
15/02:00pm 23.0 20.6 10.1 44 7.2 E 13 20 7 11 - - 0.0
15/01:30pm 23.9 22.6 11.3 45 7.2 E 9 17 5 9 - - 0.0
15/01:00pm 24.5 22.7 10.8 42 7.8 ENE 11 22 6 12 - - 0.0
15/12:30pm 22.4 20.7 11.2 49 6.3 NE 11 19 6 10 - - 0.0
15/12:00pm 22.6 20.3 11.7 50 6.2 E 15 20 8 11 - - 0.0
15/11:30am 21.4 18.6 11.4 53 5.6 ESE 17 24 9 13 - - 0.0
15/11:00am 21.3 19.0 11.6 54 5.5 E 15 22 8 12 - - 0.0
15/10:30am 20.8 19.8 10.9 53 5.5 E 7 15 4 8 - - 0.0
15/10:00am 19.9 19.7 11.7 59 4.6 SE 4 9 2 5 - - 0.0
15/09:30am 18.4 17.8 11.7 65 3.7 SSE 6 13 3 7 - - 0.0
15/09:00am 16.9 16.8 12.0 73 2.7 SW 4 7 2 4 - - -
15/08:30am 14.8 14.3 12.1 84 1.5 WSW 6 6 3 3 - - -
15/08:00am 12.4 11.4 11.1 92 0.7 W 7 9 4 5 - - -
15/07:30am 11.2 10.0 10.4 95 0.4 W 7 9 4 5 - - -
15/07:00am 12.4 13.0 11.9 97 0.3 CALM 0 0 0 0 - - -
15/06:30am 12.8 12.3 11.9 94 0.5 ESE 6 6 3 3 - - -
15/06:00am 13.1 12.6 12.0 93 0.6 E 6 7 3 4 - - -
15/05:30am 13.1 12.0 12.0 93 0.6 E 9 11 5 6 - - -
15/05:00am 13.3 12.6 12.0 92 0.7 NE 7 7 4 4 - - -
15/04:30am 13.6 12.5 12.0 90 0.9 ENE 9 13 5 7 - - -
15/04:00am 13.7 13.0 12.1 90 0.9 NE 7 9 4 5 - - -
15/03:30am 13.7 13.0 11.9 89 1.0 E 7 9 4 5 - - -
15/03:00am 14.1 13.0 12.1 88 1.1 ESE 9 11 5 6 - - 0.0
15/02:30am 14.3 13.8 12.2 87 1.2 E 6 7 3 4 - - -
15/02:00am 15.1 13.8 12.6 85 1.4 NE 11 17 6 9 - - -
15/01:30am 14.9 14.1 12.8 87 1.2 ENE 9 13 5 7 - - -
15/01:00am 14.9 13.7 12.8 87 1.2 ENE 11 15 6 8 - - -
15/12:30am 15.1 14.0 13.0 87 1.2 ENE 11 15 6 8 - - -
15/12:00am 15.1 14.0 13.0 87 1.2 NE 11 13 6 7 - - -
 
Date/Time
EST
Temp
°C
App
Temp
°C
Dew
Point
°C
Rel
Hum
%
Delta-T
°C
Wind Press
QNH
hPa
Press
MSL
hPa
Rain since
9am
mm
Dir  Spd
km/h
Gust
km/h
Spd
kts
Gust
kts
14/11:30pm 15.2 14.0 12.9 86 1.3 ENE 11 15 6 8 - - -
14/11:00pm 15.3 13.7 12.8 85 1.4 ENE 13 15 7 8 - - -
14/10:30pm 15.4 14.3 13.1 86 1.3 ENE 11 13 6 7 - - -
14/10:00pm 15.1 14.3 12.8 86 1.3 NE 9 13 5 7 - - -
14/09:30pm 14.9 13.9 12.2 84 1.5 ENE 9 11 5 6 - - -
14/09:00pm 15.2 13.7 12.0 81 1.8 NE 11 15 6 8 - - 0.0
14/08:30pm 15.3 14.1 11.5 78 2.1 NE 9 13 5 7 - - -
14/08:00pm 15.8 14.5 11.4 75 2.4 NE 9 13 5 7 - - -
14/07:30pm 16.3 15.3 11.0 71 2.9 NE 7 9 4 5 - - -
14/07:00pm 17.0 15.5 10.6 66 3.5 NE 9 13 5 7 - - -
14/06:30pm 17.7 16.1 10.1 61 4.1 ENE 9 19 5 10 - - -
14/06:00pm 18.6 15.6 9.1 54 5.1 ENE 15 22 8 12 - - -
14/05:30pm 19.7 15.8 8.7 49 5.9 ENE 19 30 10 16 - - -
14/05:00pm 20.9 16.7 7.5 42 7.0 NE 19 33 10 18 - - -
14/04:30pm 22.0 18.1 7.0 38 7.9 ENE 17 26 9 14 - - -
14/04:00pm 22.2 17.7 6.8 37 8.0 ENE 20 32 11 17 - - -
14/03:30pm 23.2 18.9 6.9 35 8.6 NE 19 28 10 15 - - -
14/03:00pm 23.5 19.0 6.3 33 9.0 ENE 19 28 10 15 - - -
14/12:00pm 23.4 19.7 -3.0 17 11.6 SE 7 20 4 11 - - 0.0
14/11:30am 22.9 17.7 -2.6 18 11.2 E 15 26 8 14 - - 0.0
14/11:00am 21.3 16.4 -3.2 19 10.5 ENE 13 24 7 13 - - 0.0
14/10:30am 20.4 15.4 -4.0 19 10.2 SE 13 22 7 12 - - 0.0
14/10:00am 18.6 15.5 1.2 31 7.9 SSW 7 13 4 7 - - 0.0
14/09:30am 15.8 13.4 5.1 49 5.2 WSW 7 9 4 5 - - 0.0
14/09:00am 13.4 11.9 8.3 71 2.6 WSW 6 11 3 6 - - 0.0
14/08:30am 10.9 10.6 8.7 86 1.1 CALM 0 2 0 1 - - 0.0
14/08:00am 8.9 7.1 7.2 89 0.8 E 6 7 3 4 - - 0.0
14/07:30am 8.3 7.4 7.7 96 0.3 ENE 2 6 1 3 - - 0.0
14/07:00am 6.8 4.3 6.5 98 0.1 NE 9 11 5 6 - - 0.0
14/06:30am 5.9 3.2 5.5 97 0.2 ENE 9 11 5 6 - - 0.0
14/06:00am 6.3 4.0 5.9 97 0.2 NE 7 9 4 5 - - 0.0
14/05:30am 6.8 4.6 6.1 95 0.3 ENE 7 7 4 4 - - 0.0
14/05:00am 8.0 6.3 7.6 97 0.2 E 6 7 3 4 - - 0.0
14/04:30am 8.5 6.9 7.9 96 0.3 ENE 6 6 3 3 - - 0.0
14/04:00am 8.5 6.7 8.1 97 0.2 ENE 7 7 4 4 - - 0.0
14/03:30am 8.6 6.9 8.2 97 0.2 ENE 7 9 4 5 - - 0.0
14/03:00am 9.2 7.6 8.7 97 0.2 ENE 7 9 4 5 - - 0.0
14/02:30am 9.4 7.4 8.8 96 0.3 ENE 9 11 5 6 - - 0.0
14/02:00am 10.3 9.0 9.8 97 0.3 ENE 7 9 4 5 - - 0.0
14/01:30am 10.8 9.2 10.2 96 0.3 ENE 9 9 5 5 - - 0.0
14/01:00am 11.3 10.4 10.7 96 0.3 NE 6 7 3 4 - - 0.0
14/12:30am 11.6 10.6 11.0 96 0.3 ENE 7 9 4 5 - - 0.0
14/12:00am 11.4 10.3 10.6 95 0.4 ENE 7 9 4 5 - - 0.0
 
Date/Time
EST
Temp
°C
App
Temp
°C
Dew
Point
°C
Rel
Hum
%
Delta-T
°C
Wind Press
QNH
hPa
Press
MSL
hPa
Rain since
9am
mm
Dir  Spd
km/h
Gust
km/h
Spd
kts
Gust
kts
13/11:30pm 12.1 11.2 11.3 95 0.4 ENE 7 9 4 5 - - 0.0
13/11:00pm 12.5 11.7 11.6 94 0.5 ENE 7 9 4 5 - - 0.0
13/10:30pm 13.3 12.6 11.9 91 0.8 NE 7 9 4 5 - - 0.0
13/10:00pm 14.3 13.7 12.3 88 1.1 NE 7 9 4 5 - - 0.0
13/09:30pm 15.1 14.8 12.6 85 1.4 ENE 6 7 3 4 - - 0.0
13/09:00pm 15.4 15.1 12.7 84 1.5 E 6 7 3 4 - - 0.0
13/08:30pm 15.9 15.0 12.6 81 1.9 ENE 9 11 5 6 - - 0.0
13/08:00pm 16.6 16.1 12.8 78 2.1 NE 7 9 4 5 - - 0.0

Other Formats:

Comma delimited format used in spreadsheet applications
http://www.bom.gov.au/fwo/IDQ60801/IDQ60801.94271.axf

JavaScript Object Notation format (JSON) in row-major order
http://www.bom.gov.au/fwo/IDQ60801/IDQ60801.94271.json